createdAt,value
2016-05-30T00:00:49.391Z,989.25
2016-05-30T00:01:49.440Z,989.27
2016-05-30T00:02:49.521Z,989.23
2016-05-30T00:03:49.524Z,989.18
2016-05-30T00:04:49.574Z,989.14
2016-05-30T00:05:49.607Z,989.14
2016-05-30T00:06:49.766Z,989.09
2016-05-30T00:07:49.706Z,989.06
2016-05-30T00:08:49.740Z,989.06
2016-05-30T00:09:49.790Z,989.03
2016-05-30T00:10:49.855Z,989.03
2016-05-30T00:11:49.873Z,989.03
2016-05-30T00:12:49.907Z,989.02
2016-05-30T00:13:49.973Z,988.99
2016-05-30T00:14:49.990Z,989
2016-05-30T00:15:50.040Z,989
2016-05-30T00:16:50.090Z,989.03
2016-05-30T00:17:50.139Z,988.96
2016-05-30T00:18:50.189Z,988.94
2016-05-30T00:19:50.223Z,988.95
2016-05-30T00:20:50.287Z,988.95
2016-05-30T00:21:50.306Z,988.94
2016-05-30T00:22:50.340Z,988.96
2016-05-30T00:23:50.389Z,988.89
2016-05-30T00:24:50.439Z,988.86
2016-05-30T00:25:50.472Z,988.89
2016-05-30T00:26:50.522Z,988.84
2016-05-30T00:27:50.557Z,988.85
2016-05-30T00:28:50.606Z,988.8
2016-05-30T00:29:50.656Z,988.79
2016-05-30T00:30:50.705Z,988.77
2016-05-30T00:31:50.739Z,988.76
2016-05-30T00:32:50.788Z,988.76
2016-05-30T00:33:50.822Z,988.71
2016-05-30T00:34:50.872Z,988.69
2016-05-30T00:35:50.907Z,988.68
2016-05-30T00:36:51.300Z,988.7
2016-05-30T00:37:51.005Z,988.7
2016-05-30T00:38:51.085Z,988.67
2016-05-30T00:39:51.089Z,988.67
2016-05-30T00:40:51.139Z,988.7
2016-05-30T00:41:51.173Z,988.7
2016-05-30T00:42:51.207Z,988.69
2016-05-30T00:43:51.256Z,988.68
2016-05-30T00:44:51.306Z,988.72
2016-05-30T00:45:51.371Z,988.7
2016-05-30T00:46:51.390Z,988.73
2016-05-30T00:47:51.439Z,988.72
2016-05-30T00:48:51.473Z,988.71
2016-05-30T00:49:51.523Z,988.69
2016-05-30T00:50:51.556Z,988.69
2016-05-30T00:51:51.606Z,988.66
2016-05-30T00:52:51.655Z,988.68
2016-05-30T00:53:51.689Z,988.68
2016-05-30T00:54:51.739Z,988.69
2016-05-30T00:55:51.789Z,988.66
2016-05-30T00:56:51.853Z,988.67
2016-05-30T00:57:51.872Z,988.6
2016-05-30T00:58:51.906Z,988.61
2016-05-30T00:59:51.939Z,988.58
2016-05-30T01:00:51.989Z,988.58
2016-05-30T01:01:52.038Z,988.57
2016-05-30T01:02:52.072Z,988.51
2016-05-30T01:03:52.169Z,988.48
2016-05-30T01:04:52.172Z,988.47
2016-05-30T01:05:52.205Z,988.46
2016-05-30T01:06:52.255Z,988.43
2016-05-30T01:07:52.289Z,988.45
2016-05-30T01:08:52.338Z,988.43
2016-05-30T01:09:52.373Z,988.41
2016-05-30T01:10:52.421Z,988.44
2016-05-30T01:11:52.456Z,988.39
2016-05-30T01:12:52.506Z,988.41
2016-05-30T01:13:52.555Z,988.39
2016-05-30T01:14:52.604Z,988.41
2016-05-30T01:15:52.640Z,988.37
2016-05-30T01:16:52.688Z,988.35
2016-05-30T01:17:52.723Z,988.33
2016-05-30T01:18:52.756Z,988.34
2016-05-30T01:19:52.821Z,988.28
2016-05-30T01:20:52.856Z,988.27
2016-05-30T01:21:52.890Z,988.26
2016-05-30T01:22:52.954Z,988.26
2016-05-30T01:23:52.989Z,988.25
2016-05-30T01:24:53.023Z,988.21
2016-05-30T01:25:53.073Z,988.25
2016-05-30T01:26:53.106Z,988.25
2016-05-30T01:27:53.156Z,988.25
2016-05-30T01:28:53.220Z,988.28
2016-05-30T01:29:53.239Z,988.25
2016-05-30T01:30:53.289Z,988.26
2016-05-30T01:31:53.322Z,988.26
2016-05-30T01:32:53.372Z,988.25
2016-05-30T01:33:53.405Z,988.24
2016-05-30T01:34:53.456Z,988.23
2016-05-30T01:35:53.536Z,988.22
2016-05-30T01:36:53.555Z,988.21
2016-05-30T01:37:53.588Z,988.23
2016-05-30T01:38:53.622Z,988.22
2016-05-30T01:39:53.688Z,988.23
2016-05-30T01:40:53.707Z,988.26
2016-05-30T01:41:53.755Z,988.27
2016-05-30T01:42:53.790Z,988.29
2016-05-30T01:43:53.840Z,988.28
2016-05-30T01:44:53.888Z,988.28
2016-05-30T01:45:53.923Z,988.3
2016-05-30T01:46:53.972Z,988.3
2016-05-30T01:47:54.006Z,988.29
2016-05-30T01:48:54.071Z,988.26
2016-05-30T01:49:54.090Z,988.19
2016-05-30T01:50:54.139Z,988.18
2016-05-30T01:51:54.298Z,988.22
2016-05-30T01:52:54.223Z,988.22
2016-05-30T01:53:54.287Z,988.21
2016-05-30T01:54:54.322Z,988.23
2016-05-30T01:55:54.355Z,988.29
2016-05-30T01:56:54.389Z,988.31
2016-05-30T01:57:54.439Z,988.32
2016-05-30T01:58:54.489Z,988.35
2016-05-30T01:59:54.522Z,988.38
2016-05-30T02:00:54.604Z,988.41
2016-05-30T02:01:54.606Z,988.42
2016-05-30T02:02:54.655Z,988.42
2016-05-30T02:03:54.705Z,988.42
2016-05-30T02:04:54.755Z,988.41
2016-05-30T02:05:54.789Z,988.43
2016-05-30T02:06:54.823Z,988.45
2016-05-30T02:07:54.873Z,988.42
2016-05-30T02:08:54.906Z,988.43
2016-05-30T02:09:54.956Z,988.42
2016-05-30T02:10:55.005Z,988.43
2016-05-30T02:11:55.055Z,988.41
2016-05-30T02:12:55.089Z,988.45
2016-05-30T02:13:55.123Z,988.46
2016-05-30T02:14:55.173Z,988.44
2016-05-30T02:15:55.207Z,988.47
2016-05-30T02:16:55.257Z,988.45
2016-05-30T02:17:55.306Z,988.47
2016-05-30T02:18:55.371Z,988.48
2016-05-30T02:19:55.390Z,988.5
2016-05-30T02:20:55.439Z,988.49
2016-05-30T02:21:55.785Z,988.47
2016-05-30T02:22:55.506Z,988.48
2016-05-30T02:23:55.556Z,988.49
2016-05-30T02:24:55.606Z,988.47
2016-05-30T02:25:55.687Z,988.42
2016-05-30T02:26:55.689Z,988.46
2016-05-30T02:27:55.723Z,988.46
2016-05-30T02:28:55.773Z,988.45
2016-05-30T02:29:55.806Z,988.39
2016-05-30T02:30:55.856Z,988.37
2016-05-30T02:31:55.905Z,988.32
2016-05-30T02:32:55.940Z,988.3
2016-05-30T02:33:55.989Z,988.24
2016-05-30T02:34:56.023Z,988.27
2016-05-30T02:35:56.057Z,988.27
2016-05-30T02:36:56.107Z,988.34
2016-05-30T02:37:56.156Z,988.35
2016-05-30T02:38:56.218Z,988.37
2016-05-30T02:39:56.295Z,988.37
2016-05-30T02:40:56.355Z,988.33
2016-05-30T02:41:56.417Z,988.36
2016-05-30T02:42:56.494Z,988.34
2016-05-30T02:43:56.546Z,988.33
2016-05-30T02:44:56.606Z,988.3
2016-05-30T02:45:56.649Z,988.27
2016-05-30T02:46:56.708Z,988.27
2016-05-30T02:47:56.767Z,988.26
2016-05-30T02:48:56.808Z,988.24
2016-05-30T02:49:56.860Z,988.25
2016-05-30T02:50:56.929Z,988.27
2016-05-30T02:51:56.967Z,988.23
2016-05-30T02:52:56.988Z,988.21
2016-05-30T02:53:57.040Z,988.23
2016-05-30T02:54:57.075Z,988.17
2016-05-30T02:55:57.126Z,988.14
2016-05-30T02:56:57.161Z,988.15
2016-05-30T02:57:57.290Z,988.15
2016-05-30T02:58:57.247Z,988.18
2016-05-30T02:59:57.297Z,988.17
2016-05-30T03:00:57.348Z,988.16
2016-05-30T03:01:57.382Z,988.16
2016-05-30T03:02:57.448Z,988.18
2016-05-30T03:03:57.467Z,988.14
2016-05-30T03:04:57.517Z,988.13
2016-05-30T03:05:57.551Z,988.13
2016-05-30T03:06:58.193Z,988.1
2016-05-30T03:07:57.649Z,988.1
2016-05-30T03:08:57.684Z,988.08
2016-05-30T03:09:57.734Z,988.03
2016-05-30T03:10:57.767Z,988.01
2016-05-30T03:11:57.817Z,987.97
2016-05-30T03:12:57.897Z,987.99
2016-05-30T03:13:57.900Z,987.99
2016-05-30T03:14:57.934Z,988.02
2016-05-30T03:15:57.984Z,988.06
2016-05-30T03:16:58.017Z,988.11
2016-05-30T03:17:58.067Z,988.11
2016-05-30T03:18:58.116Z,988.09
2016-05-30T03:19:58.150Z,988.1
2016-05-30T03:20:58.200Z,988.1
2016-05-30T03:21:58.796Z,988.07
2016-05-30T03:22:58.283Z,988.03
2016-05-30T03:23:58.333Z,988.02
2016-05-30T03:24:58.367Z,988
2016-05-30T03:25:58.401Z,987.95
2016-05-30T03:26:58.450Z,987.97
2016-05-30T03:27:58.500Z,987.96
2016-05-30T03:28:58.534Z,987.95
2016-05-30T03:29:58.584Z,987.95
2016-05-30T03:30:58.617Z,988.01
2016-05-30T03:31:58.667Z,988.03
2016-05-30T03:32:58.701Z,988.02
2016-05-30T03:33:58.750Z,988.03
2016-05-30T03:34:58.847Z,988.06
2016-05-30T03:35:58.834Z,988.02
2016-05-30T03:36:59.165Z,988.05
2016-05-30T03:37:58.918Z,988.03
2016-05-30T03:38:58.968Z,988.05
2016-05-30T03:39:59.000Z,988.04
2016-05-30T03:40:59.051Z,988.07
2016-05-30T03:41:59.085Z,988.07
2016-05-30T03:42:59.134Z,988.11
2016-05-30T03:43:59.168Z,988.12
2016-05-30T03:44:59.218Z,988.13
2016-05-30T03:45:59.252Z,988.11
2016-05-30T03:46:59.301Z,988.1
2016-05-30T03:47:59.350Z,988.06
2016-05-30T03:48:59.385Z,988.11
2016-05-30T03:49:59.434Z,988.13
2016-05-30T03:50:59.469Z,988.1
2016-05-30T03:51:59.518Z,988.17
2016-05-30T03:52:59.567Z,988.19
2016-05-30T03:53:59.601Z,988.23
2016-05-30T03:54:59.651Z,988.23
2016-05-30T03:55:59.685Z,988.21
2016-05-30T03:56:59.766Z,988.23
2016-05-30T03:57:59.784Z,988.21
2016-05-30T03:58:59.818Z,988.21
2016-05-30T03:59:59.852Z,988.17
2016-05-30T04:00:59.932Z,988.17
2016-05-30T04:01:59.951Z,988.13
2016-05-30T04:02:59.984Z,988.12
2016-05-30T04:04:00.035Z,988.17
2016-05-30T04:05:00.068Z,988.16
2016-05-30T04:06:00.118Z,988.14
2016-05-30T04:07:00.167Z,988.14
2016-05-30T04:08:00.201Z,988.15
2016-05-30T04:09:00.251Z,988.15
2016-05-30T04:10:00.285Z,988.16
2016-05-30T04:11:00.320Z,988.19
2016-05-30T04:12:00.400Z,988.21
2016-05-30T04:13:00.402Z,988.2
2016-05-30T04:14:00.453Z,988.22
2016-05-30T04:15:00.501Z,988.22
2016-05-30T04:16:00.551Z,988.24
2016-05-30T04:17:00.601Z,988.26
2016-05-30T04:18:00.634Z,988.28
2016-05-30T04:19:00.669Z,988.25
2016-05-30T04:20:00.719Z,988.29
2016-05-30T04:21:00.752Z,988.26
2016-05-30T04:22:00.802Z,988.2
2016-05-30T04:23:00.867Z,988.2
2016-05-30T04:24:00.885Z,988.23
2016-05-30T04:25:00.919Z,988.2
2016-05-30T04:26:00.968Z,988.22
2016-05-30T04:27:01.018Z,988.23
2016-05-30T04:28:01.052Z,988.21
2016-05-30T04:29:01.101Z,988.2
2016-05-30T04:30:01.151Z,988.23
2016-05-30T04:31:01.201Z,988.22
2016-05-30T04:32:01.219Z,988.23
2016-05-30T04:33:01.284Z,988.21
2016-05-30T04:34:01.318Z,988.25
2016-05-30T04:35:01.351Z,988.24
2016-05-30T04:36:01.401Z,988.25
2016-05-30T04:37:01.921Z,988.3
2016-05-30T04:38:01.485Z,988.28
2016-05-30T04:39:01.519Z,988.25
2016-05-30T04:40:01.568Z,988.28
2016-05-30T04:41:01.650Z,988.3
2016-05-30T04:42:01.652Z,988.32
2016-05-30T04:43:01.702Z,988.28
2016-05-30T04:44:01.736Z,988.3
2016-05-30T04:45:01.816Z,988.33
2016-05-30T04:46:01.835Z,988.3
2016-05-30T04:47:02.056Z,988.3
2016-05-30T04:48:02.075Z,988.35
2016-05-30T04:49:01.968Z,988.36
2016-05-30T04:50:02.017Z,988.34
2016-05-30T04:51:02.083Z,988.36
2016-05-30T04:52:02.101Z,988.39
2016-05-30T04:53:02.135Z,988.36
2016-05-30T04:54:02.638Z,988.31
2016-05-30T04:55:02.219Z,988.27
2016-05-30T04:56:02.299Z,988.28
2016-05-30T04:57:03.208Z,988.29
2016-05-30T04:58:02.336Z,988.34
2016-05-30T04:59:02.385Z,988.35
2016-05-30T05:00:02.435Z,988.37
2016-05-30T05:01:02.485Z,988.35
2016-05-30T05:02:02.518Z,988.39
2016-05-30T05:03:02.568Z,988.38
2016-05-30T05:04:02.618Z,988.41
2016-05-30T05:05:02.635Z,988.42
2016-05-30T05:06:02.685Z,988.41
2016-05-30T05:07:03.438Z,988.48
2016-05-30T05:08:02.831Z,988.45
2016-05-30T05:09:02.865Z,988.47
2016-05-30T05:10:02.868Z,988.5
2016-05-30T05:11:02.901Z,988.43
2016-05-30T05:12:02.951Z,988.42
2016-05-30T05:13:03.001Z,988.41
2016-05-30T05:14:03.034Z,988.35
2016-05-30T05:15:03.084Z,988.4
2016-05-30T05:16:03.134Z,988.4
2016-05-30T05:17:03.168Z,988.39
2016-05-30T05:18:03.233Z,988.41
2016-05-30T05:19:03.252Z,988.39
2016-05-30T05:20:03.301Z,988.34
2016-05-30T05:21:03.336Z,988.37
2016-05-30T05:22:03.807Z,988.35
2016-05-30T05:23:03.419Z,988.36
2016-05-30T05:24:03.469Z,988.38
2016-05-30T05:25:03.518Z,988.38
2016-05-30T05:26:03.552Z,988.41
2016-05-30T05:27:03.602Z,988.4
2016-05-30T05:28:03.714Z,988.41
2016-05-30T05:29:03.685Z,988.37
2016-05-30T05:30:03.734Z,988.38
2016-05-30T05:31:03.769Z,988.42
2016-05-30T05:32:03.802Z,988.46
2016-05-30T05:33:03.852Z,988.47
2016-05-30T05:34:03.901Z,988.49
2016-05-30T05:35:03.935Z,988.5
2016-05-30T05:36:04.126Z,988.55
2016-05-30T05:37:04.081Z,988.56
2016-05-30T05:38:04.068Z,988.57
2016-05-30T05:39:04.118Z,988.58
2016-05-30T05:40:04.745Z,988.61
2016-05-30T05:41:04.202Z,988.62
2016-05-30T05:42:04.282Z,988.63
2016-05-30T05:43:04.285Z,988.67
2016-05-30T05:44:04.350Z,988.64
2016-05-30T05:45:04.400Z,988.68
2016-05-30T05:46:04.417Z,988.69
2016-05-30T05:47:04.468Z,988.72
2016-05-30T05:48:04.673Z,988.75
2016-05-30T05:49:04.770Z,988.75
2016-05-30T05:50:04.851Z,988.79
2016-05-30T05:51:05.400Z,988.82
2016-05-30T05:52:05.183Z,988.83
2016-05-30T05:53:04.968Z,988.8
2016-05-30T05:54:04.987Z,988.83
2016-05-30T05:55:05.177Z,988.9
2016-05-30T05:56:05.227Z,988.88
2016-05-30T05:57:05.166Z,988.97
2016-05-30T05:58:05.685Z,988.95
2016-05-30T05:59:05.219Z,988.95
2016-05-30T06:00:05.269Z,988.97
2016-05-30T06:01:05.271Z,988.98
2016-05-30T06:02:05.305Z,989.01
2016-05-30T06:03:05.386Z,989.05
2016-05-30T06:04:05.419Z,989.07
2016-05-30T06:05:05.797Z,989.1
2016-05-30T06:06:05.582Z,989.11
2016-05-30T06:07:05.334Z,989.14
2016-05-30T06:08:06.665Z,989.13
2016-05-30T06:09:05.418Z,989.14
2016-05-30T06:10:05.482Z,989.15
2016-05-30T06:11:05.907Z,989.11
2016-05-30T06:12:05.629Z,989.07
2016-05-30T06:13:05.600Z,989.05
2016-05-30T06:14:05.650Z,989.04
2016-05-30T06:15:05.715Z,989.06
2016-05-30T06:16:05.733Z,989.1
2016-05-30T06:17:05.783Z,989.12
2016-05-30T06:18:05.832Z,989.14
2016-05-30T06:19:05.866Z,989.14
2016-05-30T06:20:05.916Z,989.16
2016-05-30T06:21:05.950Z,989.21
2016-05-30T06:22:06.733Z,989.18
2016-05-30T06:23:08.377Z,989.17
2016-05-30T06:24:06.130Z,989.17
2016-05-30T06:25:06.225Z,989.16
2016-05-30T06:26:07.635Z,989.2
2016-05-30T06:27:06.341Z,989.2
2016-05-30T06:28:06.312Z,989.24
2016-05-30T06:29:06.315Z,989.29
2016-05-30T06:30:06.349Z,989.3
2016-05-30T06:31:06.429Z,989.35
2016-05-30T06:32:06.432Z,989.31
2016-05-30T06:33:06.482Z,989.32
2016-05-30T06:34:07.282Z,989.33
2016-05-30T06:35:06.582Z,989.35
2016-05-30T06:36:06.662Z,989.33
2016-05-30T06:37:07.040Z,989.35
2016-05-30T06:38:06.729Z,989.37
2016-05-30T06:39:06.748Z,989.35
2016-05-30T06:40:06.798Z,989.37
2016-05-30T06:41:06.878Z,989.4
2016-05-30T06:42:06.897Z,989.44
2016-05-30T06:43:06.931Z,989.46
2016-05-30T06:44:06.981Z,989.46
2016-05-30T06:45:07.389Z,989.51
2016-05-30T06:46:07.064Z,989.56
2016-05-30T06:47:07.192Z,989.59
2016-05-30T06:48:07.162Z,989.59
2016-05-30T06:49:07.213Z,989.58
2016-05-30T06:50:07.247Z,989.64
2016-05-30T06:51:07.295Z,989.65
2016-05-30T06:52:07.346Z,989.6
2016-05-30T06:53:07.380Z,989.52
2016-05-30T06:54:07.428Z,989.55
2016-05-30T06:55:09.073Z,989.46
2016-05-30T06:56:07.513Z,989.54
2016-05-30T06:57:07.703Z,989.57
2016-05-30T06:58:07.628Z,989.57
2016-05-30T06:59:07.692Z,989.61
2016-05-30T07:00:07.695Z,989.57
2016-05-30T07:01:07.744Z,989.61
2016-05-30T07:02:07.794Z,989.58
2016-05-30T07:03:07.875Z,989.61
2016-05-30T07:04:07.878Z,989.57
2016-05-30T07:05:07.928Z,989.63
2016-05-30T07:06:07.977Z,989.62
2016-05-30T07:07:08.183Z,989.65
2016-05-30T07:08:08.060Z,989.64
2016-05-30T07:09:08.110Z,989.62
2016-05-30T07:10:08.175Z,989.59
2016-05-30T07:11:08.194Z,989.54
2016-05-30T07:12:08.243Z,989.59
2016-05-30T07:13:08.323Z,989.57
2016-05-30T07:14:08.562Z,989.58
2016-05-30T07:15:08.376Z,989.56
2016-05-30T07:16:08.426Z,989.55
2016-05-30T07:17:08.570Z,989.55
2016-05-30T07:18:08.854Z,989.57
2016-05-30T07:19:08.559Z,989.58
2016-05-30T07:20:08.718Z,989.55
2016-05-30T07:21:08.642Z,989.55
2016-05-30T07:22:08.754Z,989.52
2016-05-30T07:23:08.742Z,989.57
2016-05-30T07:24:08.822Z,989.55
2016-05-30T07:25:11.591Z,989.56
2016-05-30T07:26:08.875Z,989.57
2016-05-30T07:27:08.925Z,989.53
2016-05-30T07:28:09.395Z,989.6
2016-05-30T07:29:09.008Z,989.56
2016-05-30T07:30:09.058Z,989.55
2016-05-30T07:31:09.263Z,989.55
2016-05-30T07:32:09.156Z,989.53
2016-05-30T07:33:09.190Z,989.57
2016-05-30T07:34:09.240Z,989.55
2016-05-30T07:35:09.321Z,989.56
2016-05-30T07:36:09.464Z,989.58
2016-05-30T07:37:09.544Z,989.57
2016-05-30T07:38:09.422Z,989.6
2016-05-30T07:39:09.471Z,989.63
2016-05-30T07:40:11.772Z,989.6
2016-05-30T07:41:09.555Z,989.61
2016-05-30T07:42:09.637Z,989.65
2016-05-30T07:43:09.654Z,989.65
2016-05-30T07:44:09.689Z,989.58
2016-05-30T07:45:09.801Z,989.63
2016-05-30T07:46:09.897Z,989.66
2016-05-30T07:47:09.837Z,989.7
2016-05-30T07:48:09.871Z,989.72
2016-05-30T07:49:09.984Z,989.72
2016-05-30T07:50:09.970Z,989.7
2016-05-30T07:51:10.020Z,989.68
2016-05-30T07:52:10.069Z,989.69
2016-05-30T07:53:10.119Z,989.71
2016-05-30T07:54:10.184Z,989.7
2016-05-30T07:55:10.984Z,989.7
2016-05-30T07:56:10.253Z,989.72
2016-05-30T07:57:10.286Z,989.76
2016-05-30T07:58:10.476Z,989.77
2016-05-30T07:59:10.385Z,989.8
2016-05-30T08:00:10.435Z,989.78
2016-05-30T08:01:10.484Z,989.74
2016-05-30T08:02:10.534Z,989.77
2016-05-30T08:03:10.646Z,989.77
2016-05-30T08:04:10.617Z,989.71
2016-05-30T08:05:10.667Z,989.73
2016-05-30T08:06:10.716Z,989.69
2016-05-30T08:07:10.750Z,989.7
2016-05-30T08:08:10.800Z,989.72
2016-05-30T08:09:10.850Z,989.77
2016-05-30T08:10:10.899Z,989.78
2016-05-30T08:11:10.933Z,989.76
2016-05-30T08:12:11.013Z,989.75
2016-05-30T08:13:11.032Z,989.8
2016-05-30T08:14:11.082Z,989.75
2016-05-30T08:15:11.132Z,989.79
2016-05-30T08:16:11.182Z,989.85
2016-05-30T08:17:11.215Z,989.88
2016-05-30T08:18:11.327Z,989.87
2016-05-30T08:19:11.329Z,989.93
2016-05-30T08:20:11.364Z,989.9
2016-05-30T08:21:11.538Z,989.97
2016-05-30T08:22:11.448Z,989.96
2016-05-30T08:23:11.513Z,989.99
2016-05-30T08:24:11.561Z,989.97
2016-05-30T08:25:11.611Z,990.02
2016-05-30T08:26:11.801Z,989.88
2016-05-30T08:27:11.679Z,989.9
2016-05-30T08:28:11.729Z,989.91
2016-05-30T08:29:18.106Z,989.92
2016-05-30T08:30:12.000Z,989.93
2016-05-30T08:31:11.924Z,989.97
2016-05-30T08:32:11.974Z,989.99
2016-05-30T08:33:13.211Z,990.03
2016-05-30T08:34:12.011Z,990.03
2016-05-30T08:35:12.044Z,990.04
2016-05-30T08:36:12.094Z,990.04
2016-05-30T08:37:12.144Z,990.04
2016-05-30T08:38:12.193Z,990.1
2016-05-30T08:39:12.243Z,990.05
2016-05-30T08:40:12.339Z,990.11
2016-05-30T08:41:12.327Z,990.1
2016-05-30T08:42:12.361Z,990.12
2016-05-30T08:43:12.409Z,990.14
2016-05-30T08:44:12.475Z,990.13
2016-05-30T08:45:12.602Z,990.15
2016-05-30T08:46:12.559Z,990.17
2016-05-30T08:47:12.592Z,990.2
2016-05-30T08:48:12.642Z,990.18
2016-05-30T08:49:12.676Z,990.24
2016-05-30T08:50:12.741Z,990.24
2016-05-30T08:51:12.776Z,990.25
2016-05-30T08:52:12.825Z,990.25
2016-05-30T08:53:12.858Z,990.32
2016-05-30T08:54:12.955Z,990.31
2016-05-30T08:55:13.286Z,990.38
2016-05-30T08:56:12.992Z,990.43
2016-05-30T08:57:13.089Z,990.46
2016-05-30T08:58:13.451Z,990.44
2016-05-30T08:59:13.140Z,990.46
2016-05-30T09:00:13.174Z,990.45
2016-05-30T09:01:13.333Z,990.48
2016-05-30T09:02:13.320Z,990.53
2016-05-30T09:03:13.948Z,990.53
2016-05-30T09:04:14.639Z,990.49
2016-05-30T09:05:14.453Z,990.53
2016-05-30T09:06:13.644Z,990.51
2016-05-30T09:07:13.599Z,990.56
2016-05-30T09:08:14.306Z,990.55
2016-05-30T09:09:14.199Z,990.52
2016-05-30T09:10:13.638Z,990.57
2016-05-30T09:11:13.688Z,990.64
2016-05-30T09:12:13.847Z,990.57
2016-05-30T09:13:13.772Z,990.57
2016-05-30T09:14:13.805Z,990.58
2016-05-30T09:15:13.871Z,990.6
2016-05-30T09:16:16.232Z,990.58
2016-05-30T09:17:14.126Z,990.59
2016-05-30T09:18:14.504Z,990.58
2016-05-30T09:19:14.523Z,990.61
2016-05-30T09:20:14.135Z,990.59
2016-05-30T09:21:14.231Z,990.63
2016-05-30T09:22:14.171Z,990.68
2016-05-30T09:23:14.923Z,990.73
2016-05-30T09:24:14.661Z,990.66
2016-05-30T09:25:14.304Z,990.65
2016-05-30T09:26:14.463Z,990.66
2016-05-30T09:27:14.387Z,990.7
2016-05-30T09:28:14.436Z,990.71
2016-05-30T09:29:14.471Z,990.72
2016-05-30T09:30:14.989Z,990.73
2016-05-30T09:31:14.617Z,990.76
2016-05-30T09:32:14.636Z,990.76
2016-05-30T09:33:14.654Z,990.77
2016-05-30T09:34:14.719Z,990.79
2016-05-30T09:35:14.753Z,990.79
2016-05-30T09:36:14.818Z,990.84
2016-05-30T09:37:14.837Z,990.8
2016-05-30T09:38:14.886Z,990.85
2016-05-30T09:39:14.966Z,990.85
2016-05-30T09:40:14.969Z,990.82
2016-05-30T09:41:15.035Z,990.82
2016-05-30T09:42:15.068Z,990.82
2016-05-30T09:43:15.103Z,990.78
2016-05-30T09:44:15.152Z,990.82
2016-05-30T09:45:15.201Z,990.81
2016-05-30T09:46:15.252Z,990.82
2016-05-30T09:47:15.285Z,990.81
2016-05-30T09:48:15.334Z,990.76
2016-05-30T09:49:15.385Z,990.79
2016-05-30T09:50:15.465Z,990.8
2016-05-30T09:51:15.468Z,990.78
2016-05-30T09:52:15.657Z,990.83
2016-05-30T09:53:15.551Z,990.82
2016-05-30T09:54:15.741Z,990.86
2016-05-30T09:55:15.650Z,990.9
2016-05-30T09:56:15.684Z,990.85
2016-05-30T09:57:15.734Z,990.89
2016-05-30T09:58:15.783Z,990.89
2016-05-30T09:59:15.880Z,990.91
2016-05-30T10:00:15.867Z,990.91
2016-05-30T10:01:15.932Z,990.93
2016-05-30T10:02:15.966Z,990.94
2016-05-30T10:03:16.016Z,990.92
2016-05-30T10:04:16.081Z,990.9
2016-05-30T10:05:16.100Z,990.95
2016-05-30T10:06:16.149Z,990.98
2016-05-30T10:07:16.198Z,990.96
2016-05-30T10:08:16.373Z,990.98
2016-05-30T10:09:16.298Z,990.98
2016-05-30T10:10:16.535Z,991.04
2016-05-30T10:11:16.381Z,991.03
2016-05-30T10:12:16.431Z,990.98
2016-05-30T10:13:16.480Z,990.95
2016-05-30T10:14:16.530Z,990.98
2016-05-30T10:15:16.564Z,990.99
2016-05-30T10:16:16.629Z,990.97
2016-05-30T10:17:16.647Z,990.99
2016-05-30T10:18:16.712Z,990.98
2016-05-30T10:19:16.746Z,991.01
2016-05-30T10:20:16.796Z,990.95
2016-05-30T10:21:16.892Z,990.95
2016-05-30T10:22:16.895Z,990.92
2016-05-30T10:23:16.976Z,990.91
2016-05-30T10:24:16.994Z,990.91
2016-05-30T10:25:17.043Z,991.01
2016-05-30T10:26:17.078Z,991.18
2016-05-30T10:27:17.143Z,991.29
2016-05-30T10:28:17.176Z,991.44
2016-05-30T10:29:17.226Z,991.23
2016-05-30T10:30:17.276Z,990.98
2016-05-30T10:31:17.309Z,991.56
2016-05-30T10:32:17.375Z,991.56
2016-05-30T10:33:17.425Z,991.62
2016-05-30T10:34:17.520Z,991.61
2016-05-30T10:35:17.789Z,991.61
2016-05-30T10:36:18.089Z,991.59
2016-05-30T10:37:18.436Z,991.65
2016-05-30T10:38:18.328Z,991.66
2016-05-30T10:39:18.363Z,991.65
2016-05-30T10:40:18.005Z,991.63
2016-05-30T10:41:18.119Z,991.62
2016-05-30T10:42:18.199Z,991.63
2016-05-30T10:43:17.920Z,991.62
2016-05-30T10:44:18.236Z,991.16
2016-05-30T10:45:18.535Z,991.21
2016-05-30T10:46:18.568Z,991.49
2016-05-30T10:47:18.322Z,991.22
2016-05-30T10:48:18.527Z,991.51
2016-05-30T10:49:18.951Z,991.26
2016-05-30T10:50:18.563Z,991.19
2016-05-30T10:51:18.677Z,991.23
2016-05-30T10:52:18.944Z,991.08
2016-05-30T10:53:18.838Z,991.19
2016-05-30T10:54:19.154Z,991.43
2016-05-30T10:55:18.968Z,991.62
2016-05-30T10:56:19.002Z,991.48
2016-05-30T10:57:19.380Z,991.57
2016-05-30T10:58:19.101Z,991.58
2016-05-30T10:59:19.010Z,991.59
2016-05-30T11:00:19.075Z,991.58
2016-05-30T11:01:19.343Z,991.53
2016-05-30T11:02:19.346Z,991.56
2016-05-30T11:03:19.114Z,991.56
2016-05-30T11:04:19.180Z,991.57
2016-05-30T11:05:19.370Z,991.6
2016-05-30T11:06:19.669Z,991.46
2016-05-30T11:07:19.406Z,991.6
2016-05-30T11:08:22.612Z,991.18
2016-05-30T11:09:19.614Z,991.19
2016-05-30T11:10:19.821Z,991.46
2016-05-30T11:11:19.839Z,991.71
2016-05-30T11:12:19.623Z,991.53
2016-05-30T11:13:19.547Z,991.36
2016-05-30T11:14:19.597Z,991.3
2016-05-30T11:15:19.866Z,991.64
2016-05-30T11:16:19.805Z,991.7
2016-05-30T11:17:20.090Z,991.43
2016-05-30T11:18:20.171Z,991.23
2016-05-30T11:19:20.346Z,991.2
2016-05-30T11:20:19.941Z,991.16
2016-05-30T11:21:20.272Z,991.24
2016-05-30T11:22:20.119Z,991.23
2016-05-30T11:23:20.107Z,991.37
2016-05-30T11:24:20.562Z,991.26
2016-05-30T11:25:20.752Z,991.89
2016-05-30T11:26:20.957Z,991.86
2016-05-30T11:27:20.335Z,991.88
2016-05-30T11:28:20.525Z,991.62
2016-05-30T11:29:20.732Z,991.83
2016-05-30T11:31:20.549Z,992.08
2016-05-30T11:32:21.551Z,992.23
2016-05-30T11:33:20.664Z,992.21
2016-05-30T11:34:21.057Z,992.21
2016-05-30T11:35:20.810Z,992.22
2016-05-30T11:36:20.859Z,992.14
2016-05-30T11:37:21.628Z,992.07
2016-05-30T11:38:21.255Z,991.91
2016-05-30T11:39:21.056Z,991.86
2016-05-30T11:40:21.589Z,991.92
2016-05-30T11:41:21.341Z,991.88
2016-05-30T11:42:21.203Z,991.95
2016-05-30T11:43:21.269Z,991.92
2016-05-30T11:44:21.334Z,991.96
2016-05-30T11:45:21.414Z,991.99
2016-05-30T11:46:21.735Z,992.02
2016-05-30T11:47:21.711Z,991.98
2016-05-30T11:48:21.921Z,992.04
2016-05-30T11:49:21.740Z,992.06
2016-05-30T11:50:21.817Z,992.09
2016-05-30T11:51:21.889Z,992.07
2016-05-30T11:52:21.962Z,992.09
2016-05-30T11:53:22.034Z,992.11
2016-05-30T11:54:22.122Z,992.14
2016-05-30T11:55:22.175Z,992.11
2016-05-30T11:56:22.243Z,992.09
2016-05-30T11:57:22.311Z,992.1
2016-05-30T11:58:22.910Z,992.08
2016-05-30T11:59:22.432Z,992.1
2016-05-30T12:00:22.498Z,992.12
2016-05-30T12:01:22.565Z,992.11
2016-05-30T12:02:22.647Z,992.08
2016-05-30T12:03:22.745Z,992.13
2016-05-30T12:04:22.763Z,992.12
2016-05-30T12:05:22.830Z,992.13
2016-05-30T12:06:22.880Z,992.14
2016-05-30T12:07:23.164Z,992.17
2016-05-30T12:08:23.229Z,992.12
2016-05-30T12:09:23.076Z,992.06
2016-05-30T12:10:23.157Z,992.07
2016-05-30T12:11:23.207Z,992.08
2016-05-30T12:12:23.506Z,992.08
2016-05-30T12:13:23.337Z,992.03
2016-05-30T12:14:23.698Z,992.06
2016-05-30T12:15:23.780Z,991.98
2016-05-30T12:16:23.533Z,992.07
2016-05-30T12:17:23.957Z,991.96
2016-05-30T12:18:23.648Z,991.14
2016-05-30T12:19:23.728Z,992.04
2016-05-30T12:20:24.012Z,991.59
2016-05-30T12:21:23.953Z,991.1
2016-05-30T12:22:23.908Z,991.3
2016-05-30T12:23:23.973Z,991.87
2016-05-30T12:24:24.133Z,991.82
2016-05-30T12:25:24.432Z,991.79
2016-05-30T12:26:24.325Z,991.82
2016-05-30T12:27:24.703Z,991.78
2016-05-30T12:28:24.580Z,991.81
2016-05-30T12:29:24.630Z,991.06
2016-05-30T12:30:24.680Z,991.63
2016-05-30T12:31:24.839Z,991.67
2016-05-30T12:32:24.888Z,991.68
2016-05-30T12:33:24.844Z,991.69